sensor_id;sensor_type;location;lat;lon;timestamp;pressure;altitude;pressure_sealevel;temperature
76476;BMP280;65308;50.078;14.854;2023-05-16T00:01:57;98616.09;;;13.04
76476;BMP280;65308;50.078;14.854;2023-05-16T00:04:25;98611.00;;;13.06
76476;BMP280;65308;50.078;14.854;2023-05-16T00:06:52;98618.06;;;13.04
76476;BMP280;65308;50.078;14.854;2023-05-16T00:09:19;98612.34;;;12.96
76476;BMP280;65308;50.078;14.854;2023-05-16T00:11:46;98619.03;;;12.86
76476;BMP280;65308;50.078;14.854;2023-05-16T00:14:12;98617.00;;;12.81
76476;BMP280;65308;50.078;14.854;2023-05-16T00:16:39;98624.06;;;12.78
76476;BMP280;65308;50.078;14.854;2023-05-16T00:19:06;98615.19;;;12.72
76476;BMP280;65308;50.078;14.854;2023-05-16T00:21:34;98615.63;;;12.70
76476;BMP280;65308;50.078;14.854;2023-05-16T00:24:01;98614.56;;;12.62
76476;BMP280;65308;50.078;14.854;2023-05-16T00:26:28;98616.03;;;12.63
76476;BMP280;65308;50.078;14.854;2023-05-16T00:28:54;98620.00;;;12.68
76476;BMP280;65308;50.078;14.854;2023-05-16T00:31:22;98617.41;;;12.73
76476;BMP280;65308;50.078;14.854;2023-05-16T00:33:48;98618.63;;;12.72
76476;BMP280;65308;50.078;14.854;2023-05-16T00:36:15;98620.72;;;12.68
76476;BMP280;65308;50.078;14.854;2023-05-16T00:38:43;98620.00;;;12.68
76476;BMP280;65308;50.078;14.854;2023-05-16T00:41:10;98614.28;;;12.60
76476;BMP280;65308;50.078;14.854;2023-05-16T00:43:36;98618.50;;;12.67
76476;BMP280;65308;50.078;14.854;2023-05-16T00:46:06;98624.91;;;12.69
76476;BMP280;65308;50.078;14.854;2023-05-16T00:48:33;98614.91;;;12.70
76476;BMP280;65308;50.078;14.854;2023-05-16T00:51:00;98621.00;;;12.70
76476;BMP280;65308;50.078;14.854;2023-05-16T00:53:27;98623.97;;;12.72
76476;BMP280;65308;50.078;14.854;2023-05-16T00:55:55;98632.03;;;12.72
76476;BMP280;65308;50.078;14.854;2023-05-16T00:58:23;98625.19;;;12.71
76476;BMP280;65308;50.078;14.854;2023-05-16T01:00:50;98623.41;;;12.68
76476;BMP280;65308;50.078;14.854;2023-05-16T01:03:17;98624.38;;;12.65
76476;BMP280;65308;50.078;14.854;2023-05-16T01:05:43;98622.13;;;12.64
76476;BMP280;65308;50.078;14.854;2023-05-16T01:08:11;98616.25;;;12.60
76476;BMP280;65308;50.078;14.854;2023-05-16T01:10:45;98614.94;;;12.55
76476;BMP280;65308;50.078;14.854;2023-05-16T01:13:23;98605.59;;;12.50
76476;BMP280;65308;50.078;14.854;2023-05-16T01:15:57;98603.00;;;12.41
76476;BMP280;65308;50.078;14.854;2023-05-16T01:18:30;98615.88;;;12.37
76476;BMP280;65308;50.078;14.854;2023-05-16T01:21:03;98621.16;;;12.32
76476;BMP280;65308;50.078;14.854;2023-05-16T01:23:41;98615.94;;;12.28
76476;BMP280;65308;50.078;14.854;2023-05-16T01:26:17;98626.88;;;12.24
76476;BMP280;65308;50.078;14.854;2023-05-16T01:28:45;98625.59;;;12.20
76476;BMP280;65308;50.078;14.854;2023-05-16T01:31:13;98626.53;;;12.17
76476;BMP280;65308;50.078;14.854;2023-05-16T01:33:40;98629.66;;;12.15
76476;BMP280;65308;50.078;14.854;2023-05-16T01:36:15;98631.34;;;12.13
76476;BMP280;65308;50.078;14.854;2023-05-16T01:38:47;98634.47;;;12.11
76476;BMP280;65308;50.078;14.854;2023-05-16T01:41:20;98632.88;;;12.04
76476;BMP280;65308;50.078;14.854;2023-05-16T01:43:50;98630.41;;;12.01
76476;BMP280;65308;50.078;14.854;2023-05-16T01:46:22;98641.28;;;11.97
76476;BMP280;65308;50.078;14.854;2023-05-16T01:48:53;98643.88;;;11.92
76476;BMP280;65308;50.078;14.854;2023-05-16T01:51:26;98643.88;;;11.92
76476;BMP280;65308;50.078;14.854;2023-05-16T01:53:58;98642.41;;;11.91
76476;BMP280;65308;50.078;14.854;2023-05-16T01:56:27;98647.47;;;11.89
76476;BMP280;65308;50.078;14.854;2023-05-16T01:58:57;98654.31;;;11.90
76476;BMP280;65308;50.078;14.854;2023-05-16T02:01:24;98659.22;;;11.91
76476;BMP280;65308;50.078;14.854;2023-05-16T02:03:51;98658.66;;;11.87
76476;BMP280;65308;50.078;14.854;2023-05-16T02:06:18;98663.28;;;11.87
76476;BMP280;65308;50.078;14.854;2023-05-16T02:08:45;98663.56;;;11.89
76476;BMP280;65308;50.078;14.854;2023-05-16T02:11:12;98664.78;;;11.88
76476;BMP280;65308;50.078;14.854;2023-05-16T02:13:40;98665.38;;;11.83
76476;BMP280;65308;50.078;14.854;2023-05-16T02:16:09;98656.59;;;11.82
76476;BMP280;65308;50.078;14.854;2023-05-16T02:18:36;98651.97;;;11.83
76476;BMP280;65308;50.078;14.854;2023-05-16T02:21:02;98651.72;;;11.80
76476;BMP280;65308;50.078;14.854;2023-05-16T02:23:29;98649.75;;;11.81
76476;BMP280;65308;50.078;14.854;2023-05-16T02:25:56;98659.75;;;11.80
76476;BMP280;65308;50.078;14.854;2023-05-16T02:28:23;98649.03;;;11.80
76476;BMP280;65308;50.078;14.854;2023-05-16T02:30:56;98649.28;;;11.83
76476;BMP280;65308;50.078;14.854;2023-05-16T02:33:23;98649.50;;;11.79
76476;BMP280;65308;50.078;14.854;2023-05-16T02:35:50;98651.97;;;11.83
76476;BMP280;65308;50.078;14.854;2023-05-16T02:38:16;98651.97;;;11.83
76476;BMP280;65308;50.078;14.854;2023-05-16T02:40:45;98655.59;;;11.79
76476;BMP280;65308;50.078;14.854;2023-05-16T02:43:12;98651.97;;;11.83
76476;BMP280;65308;50.078;14.854;2023-05-16T02:45:38;98653.31;;;11.87
76476;BMP280;65308;50.078;14.854;2023-05-16T02:48:06;98660.88;;;11.89
76476;BMP280;65308;50.078;14.854;2023-05-16T02:50:33;98666.25;;;11.89
76476;BMP280;65308;50.078;14.854;2023-05-16T02:53:00;98663.56;;;11.89
76476;BMP280;65308;50.078;14.854;2023-05-16T02:55:27;98666.25;;;11.89
76476;BMP280;65308;50.078;14.854;2023-05-16T02:57:53;98666.53;;;11.91
76476;BMP280;65308;50.078;14.854;2023-05-16T03:00:20;98666.06;;;11.92
76476;BMP280;65308;50.078;14.854;2023-05-16T03:02:47;98667.06;;;11.95
76476;BMP280;65308;50.078;14.854;2023-05-16T03:05:16;98676.34;;;11.94
76476;BMP280;65308;50.078;14.854;2023-05-16T03:07:42;98684.53;;;11.90
76476;BMP280;65308;50.078;14.854;2023-05-16T03:10:09;98680.22;;;11.93
76476;BMP280;65308;50.078;14.854;2023-05-16T03:12:36;98680.47;;;11.95
76476;BMP280;65308;50.078;14.854;2023-05-16T03:15:04;98683.44;;;11.97
76476;BMP280;65308;50.078;14.854;2023-05-16T03:17:30;98684.03;;;12.01
76476;BMP280;65308;50.078;14.854;2023-05-16T03:19:57;98689.69;;;12.03
76476;BMP280;65308;50.078;14.854;2023-05-16T03:22:25;98682.00;;;12.11
76476;BMP280;65308;50.078;14.854;2023-05-16T03:24:52;98686.72;;;12.16
76476;BMP280;65308;50.078;14.854;2023-05-16T03:27:18;98685.34;;;12.20
76476;BMP280;65308;50.078;14.854;2023-05-16T03:29:45;98690.06;;;12.25
76476;BMP280;65308;50.078;14.854;2023-05-16T03:32:11;98697.94;;;12.29
76476;BMP280;65308;50.078;14.854;2023-05-16T03:34:38;98700.72;;;12.35
76476;BMP280;65308;50.078;14.854;2023-05-16T03:37:05;98709.13;;;12.42
76476;BMP280;65308;50.078;14.854;2023-05-16T03:39:33;98704.16;;;12.50
76476;BMP280;65308;50.078;14.854;2023-05-16T03:42:00;98712.88;;;12.60
76476;BMP280;65308;50.078;14.854;2023-05-16T03:44:26;98717.38;;;12.68
76476;BMP280;65308;50.078;14.854;2023-05-16T03:46:53;98708.97;;;12.75
76476;BMP280;65308;50.078;14.854;2023-05-16T03:49:24;98724.06;;;12.88
76476;BMP280;65308;50.078;14.854;2023-05-16T03:51:52;98727.09;;;12.95
76476;BMP280;65308;50.078;14.854;2023-05-16T03:54:20;98734.50;;;13.00
76476;BMP280;65308;50.078;14.854;2023-05-16T03:56:48;98739.84;;;13.15
76476;BMP280;65308;50.078;14.854;2023-05-16T03:59:14;98736.44;;;13.50
76476;BMP280;65308;50.078;14.854;2023-05-16T04:01:41;98742.47;;;13.86
76476;BMP280;65308;50.078;14.854;2023-05-16T04:04:07;98747.75;;;14.47
76476;BMP280;65308;50.078;14.854;2023-05-16T04:06:34;98746.06;;;15.13
76476;BMP280;65308;50.078;14.854;2023-05-16T04:09:01;98746.38;;;15.74
76476;BMP280;65308;50.078;14.854;2023-05-16T04:11:27;98747.94;;;16.37
76476;BMP280;65308;50.078;14.854;2023-05-16T04:13:56;98746.97;;;16.85
76476;BMP280;65308;50.078;14.854;2023-05-16T04:16:26;98746.56;;;17.39
76476;BMP280;65308;50.078;14.854;2023-05-16T04:18:53;98744.28;;;18.01
76476;BMP280;65308;50.078;14.854;2023-05-16T04:21:20;98746.50;;;18.63
76476;BMP280;65308;50.078;14.854;2023-05-16T04:23:47;98739.03;;;19.18
76476;BMP280;65308;50.078;14.854;2023-05-16T04:26:14;98735.31;;;19.91
76476;BMP280;65308;50.078;14.854;2023-05-16T04:28:41;98739.28;;;20.22
76476;BMP280;65308;50.078;14.854;2023-05-16T04:31:11;98743.72;;;20.65
76476;BMP280;65308;50.078;14.854;2023-05-16T04:33:39;98746.94;;;21.16
76476;BMP280;65308;50.078;14.854;2023-05-16T04:36:07;98763.91;;;22.12
76476;BMP280;65308;50.078;14.854;2023-05-16T04:38:37;98760.53;;;22.83
76476;BMP280;65308;50.078;14.854;2023-05-16T04:41:06;98766.81;;;23.66
76476;BMP280;65308;50.078;14.854;2023-05-16T04:43:35;98763.00;;;24.22
76476;BMP280;65308;50.078;14.854;2023-05-16T04:46:03;98756.63;;;24.12
76476;BMP280;65308;50.078;14.854;2023-05-16T04:48:33;98753.81;;;24.58
76476;BMP280;65308;50.078;14.854;2023-05-16T04:50:59;98763.88;;;24.96
76476;BMP280;65308;50.078;14.854;2023-05-16T04:53:26;98759.13;;;25.29
76476;BMP280;65308;50.078;14.854;2023-05-16T04:55:58;98773.38;;;25.85
76476;BMP280;65308;50.078;14.854;2023-05-16T04:58:25;98778.34;;;26.56
76476;BMP280;65308;50.078;14.854;2023-05-16T05:00:51;98785.38;;;27.20
76476;BMP280;65308;50.078;14.854;2023-05-16T05:03:18;98788.94;;;27.77
76476;BMP280;65308;50.078;14.854;2023-05-16T05:05:47;98784.09;;;28.43
76476;BMP280;65308;50.078;14.854;2023-05-16T05:08:13;98788.69;;;29.20
76476;BMP280;65308;50.078;14.854;2023-05-16T05:10:40;98794.03;;;29.80
76476;BMP280;65308;50.078;14.854;2023-05-16T05:13:07;98792.66;;;30.45
76476;BMP280;65308;50.078;14.854;2023-05-16T05:15:34;98784.25;;;31.11
76476;BMP280;65308;50.078;14.854;2023-05-16T05:18:01;98787.91;;;31.62
76476;BMP280;65308;50.078;14.854;2023-05-16T05:20:27;98783.97;;;31.91
76476;BMP280;65308;50.078;14.854;2023-05-16T05:22:56;98777.44;;;31.49
76476;BMP280;65308;50.078;14.854;2023-05-16T05:25:22;98779.03;;;31.40
76476;BMP280;65308;50.078;14.854;2023-05-16T05:27:49;98773.47;;;31.52
76476;BMP280;65308;50.078;14.854;2023-05-16T05:30:16;98770.78;;;31.29
76476;BMP280;65308;50.078;14.854;2023-05-16T05:32:43;98772.09;;;31.76
76476;BMP280;65308;50.078;14.854;2023-05-16T05:35:10;98769.41;;;31.90
76476;BMP280;65308;50.078;14.854;2023-05-16T05:37:37;98777.28;;;31.70
76476;BMP280;65308;50.078;14.854;2023-05-16T05:40:06;98780.31;;;32.00
76476;BMP280;65308;50.078;14.854;2023-05-16T05:42:33;98777.00;;;32.15
76476;BMP280;65308;50.078;14.854;2023-05-16T05:45:00;98777.81;;;32.18
76476;BMP280;65308;50.078;14.854;2023-05-16T05:47:26;98788.94;;;32.31
76476;BMP280;65308;50.078;14.854;2023-05-16T05:49:53;98783.56;;;32.47
76476;BMP280;65308;50.078;14.854;2023-05-16T05:52:20;98776.84;;;32.64
76476;BMP280;65308;50.078;14.854;2023-05-16T05:54:47;98783.63;;;32.88
76476;BMP280;65308;50.078;14.854;2023-05-16T05:57:15;98772.94;;;32.83
76476;BMP280;65308;50.078;14.854;2023-05-16T05:59:41;98773.81;;;32.32
76476;BMP280;65308;50.078;14.854;2023-05-16T06:02:08;98780.09;;;31.59
76476;BMP280;65308;50.078;14.854;2023-05-16T06:04:35;98773.16;;;31.23
76476;BMP280;65308;50.078;14.854;2023-05-16T06:07:02;98774.28;;;31.66
76476;BMP280;65308;50.078;14.854;2023-05-16T06:09:28;98780.06;;;32.33
76476;BMP280;65308;50.078;14.854;2023-05-16T06:11:55;98785.50;;;32.44
76476;BMP280;65308;50.078;14.854;2023-05-16T06:14:23;98786.78;;;32.30
76476;BMP280;65308;50.078;14.854;2023-05-16T06:16:50;98788.88;;;32.18
76476;BMP280;65308;50.078;14.854;2023-05-16T06:19:17;98792.72;;;31.99
76476;BMP280;65308;50.078;14.854;2023-05-16T06:21:43;98791.97;;;31.61
76476;BMP280;65308;50.078;14.854;2023-05-16T06:24:10;98797.25;;;32.06
76476;BMP280;65308;50.078;14.854;2023-05-16T06:26:37;98792.78;;;32.77
76476;BMP280;65308;50.078;14.854;2023-05-16T06:29:03;98805.59;;;33.53
76476;BMP280;65308;50.078;14.854;2023-05-16T06:31:31;98806.50;;;34.61
76476;BMP280;65308;50.078;14.854;2023-05-16T06:33:58;98816.03;;;35.06
76476;BMP280;65308;50.078;14.854;2023-05-16T06:36:25;98814.94;;;35.64
76476;BMP280;65308;50.078;14.854;2023-05-16T06:38:51;98814.44;;;36.23
76476;BMP280;65308;50.078;14.854;2023-05-16T06:41:18;98804.59;;;36.99
76476;BMP280;65308;50.078;14.854;2023-05-16T06:43:45;98815.06;;;37.88
76476;BMP280;65308;50.078;14.854;2023-05-16T06:46:12;98807.31;;;39.16
76476;BMP280;65308;50.078;14.854;2023-05-16T06:48:40;98813.00;;;40.16
76476;BMP280;65308;50.078;14.854;2023-05-16T06:51:06;98812.22;;;40.89
76476;BMP280;65308;50.078;14.854;2023-05-16T06:53:34;98817.19;;;41.39
76476;BMP280;65308;50.078;14.854;2023-05-16T06:56:00;98825.16;;;42.15
76476;BMP280;65308;50.078;14.854;2023-05-16T06:58:27;98818.72;;;42.77
76476;BMP280;65308;50.078;14.854;2023-05-16T07:00:54;98823.16;;;43.08
76476;BMP280;65308;50.078;14.854;2023-05-16T07:03:20;98816.34;;;43.46
76476;BMP280;65308;50.078;14.854;2023-05-16T07:05:48;98807.31;;;43.80
76476;BMP280;65308;50.078;14.854;2023-05-16T07:08:17;98803.78;;;43.85
76476;BMP280;65308;50.078;14.854;2023-05-16T07:10:43;98807.91;;;43.58
76476;BMP280;65308;50.078;14.854;2023-05-16T07:13:10;98814.22;;;43.48
76476;BMP280;65308;50.078;14.854;2023-05-16T07:15:37;98805.94;;;43.85
76476;BMP280;65308;50.078;14.854;2023-05-16T07:18:04;98818.69;;;44.20
76476;BMP280;65308;50.078;14.854;2023-05-16T07:20:30;98815.88;;;44.69
76476;BMP280;65308;50.078;14.854;2023-05-16T07:22:58;98808.06;;;44.96
76476;BMP280;65308;50.078;14.854;2023-05-16T07:25:25;98816.34;;;45.55
76476;BMP280;65308;50.078;14.854;2023-05-16T07:27:52;98823.47;;;45.40
76476;BMP280;65308;50.078;14.854;2023-05-16T07:30:19;98815.72;;;45.34
76476;BMP280;65308;50.078;14.854;2023-05-16T07:32:46;98811.63;;;44.15
76476;BMP280;65308;50.078;14.854;2023-05-16T07:35:12;98827.16;;;44.53
76476;BMP280;65308;50.078;14.854;2023-05-16T07:37:39;98836.88;;;45.37
76476;BMP280;65308;50.078;14.854;2023-05-16T07:40:09;98838.47;;;44.67
76476;BMP280;65308;50.078;14.854;2023-05-16T07:42:36;98834.13;;;45.11
76476;BMP280;65308;50.078;14.854;2023-05-16T07:45:04;98837.34;;;45.90
76476;BMP280;65308;50.078;14.854;2023-05-16T07:47:31;98846.34;;;46.21
76476;BMP280;65308;50.078;14.854;2023-05-16T07:49:57;98830.13;;;46.91
76476;BMP280;65308;50.078;14.854;2023-05-16T07:52:25;98837.75;;;47.09
76476;BMP280;65308;50.078;14.854;2023-05-16T07:54:51;98830.84;;;47.51
76476;BMP280;65308;50.078;14.854;2023-05-16T07:57:19;98832.63;;;47.21
76476;BMP280;65308;50.078;14.854;2023-05-16T07:59:46;98844.53;;;45.65
76476;BMP280;65308;50.078;14.854;2023-05-16T08:02:13;98847.13;;;46.11
76476;BMP280;65308;50.078;14.854;2023-05-16T08:04:39;98837.41;;;45.78
76476;BMP280;65308;50.078;14.854;2023-05-16T08:07:06;98844.78;;;44.49
76476;BMP280;65308;50.078;14.854;2023-05-16T08:09:33;98859.47;;;45.39
76476;BMP280;65308;50.078;14.854;2023-05-16T08:12:00;98865.53;;;46.08
76476;BMP280;65308;50.078;14.854;2023-05-16T08:14:30;98869.75;;;46.95
76476;BMP280;65308;50.078;14.854;2023-05-16T08:16:58;98864.50;;;47.20
76476;BMP280;65308;50.078;14.854;2023-05-16T08:19:25;98859.06;;;47.61
76476;BMP280;65308;50.078;14.854;2023-05-16T08:21:51;98849.81;;;46.32
76476;BMP280;65308;50.078;14.854;2023-05-16T08:24:19;98855.47;;;46.32
76476;BMP280;65308;50.078;14.854;2023-05-16T08:26:46;98860.31;;;44.48
76476;BMP280;65308;50.078;14.854;2023-05-16T08:29:13;98854.63;;;44.18
76476;BMP280;65308;50.078;14.854;2023-05-16T08:31:41;98853.25;;;44.47
76476;BMP280;65308;50.078;14.854;2023-05-16T08:34:08;98870.19;;;44.68
76476;BMP280;65308;50.078;14.854;2023-05-16T08:36:34;98875.84;;;44.70
76476;BMP280;65308;50.078;14.854;2023-05-16T08:39:02;98863.09;;;44.24
76476;BMP280;65308;50.078;14.854;2023-05-16T08:41:28;98877.84;;;44.00
76476;BMP280;65308;50.078;14.854;2023-05-16T08:43:56;98868.75;;;44.32
76476;BMP280;65308;50.078;14.854;2023-05-16T08:46:23;98863.13;;;44.38
76476;BMP280;65308;50.078;14.854;2023-05-16T08:48:52;98872.28;;;44.29
76476;BMP280;65308;50.078;14.854;2023-05-16T08:51:20;98869.44;;;44.41
76476;BMP280;65308;50.078;14.854;2023-05-16T08:53:52;98876.03;;;42.37
76476;BMP280;65308;50.078;14.854;2023-05-16T08:56:20;98890.81;;;41.82
76476;BMP280;65308;50.078;14.854;2023-05-16T08:58:48;98888.31;;;41.56
76476;BMP280;65308;50.078;14.854;2023-05-16T09:01:16;98880.84;;;40.44
76476;BMP280;65308;50.078;14.854;2023-05-16T09:03:45;98891.22;;;40.04
76476;BMP280;65308;50.078;14.854;2023-05-16T09:06:15;98880.19;;;39.80
76476;BMP280;65308;50.078;14.854;2023-05-16T09:08:42;98863.50;;;38.96
76476;BMP280;65308;50.078;14.854;2023-05-16T09:11:09;98874.41;;;38.60
76476;BMP280;65308;50.078;14.854;2023-05-16T09:13:38;98868.28;;;38.40
76476;BMP280;65308;50.078;14.854;2023-05-16T09:16:09;98869.28;;;38.27
76476;BMP280;65308;50.078;14.854;2023-05-16T09:18:37;98864.69;;;37.89
76476;BMP280;65308;50.078;14.854;2023-05-16T09:21:04;98875.16;;;37.89
76476;BMP280;65308;50.078;14.854;2023-05-16T09:23:33;98873.09;;;37.68
76476;BMP280;65308;50.078;14.854;2023-05-16T09:26:00;98873.28;;;37.52
76476;BMP280;65308;50.078;14.854;2023-05-16T09:28:27;98892.41;;;37.62
76476;BMP280;65308;50.078;14.854;2023-05-16T09:30:54;98885.75;;;37.49
76476;BMP280;65308;50.078;14.854;2023-05-16T09:33:24;98884.03;;;35.85
76476;BMP280;65308;50.078;14.854;2023-05-16T09:35:55;98881.06;;;35.81
76476;BMP280;65308;50.078;14.854;2023-05-16T09:38:24;98884.16;;;35.72
76476;BMP280;65308;50.078;14.854;2023-05-16T09:40:52;98872.25;;;35.53
76476;BMP280;65308;50.078;14.854;2023-05-16T09:43:21;98867.47;;;35.38
76476;BMP280;65308;50.078;14.854;2023-05-16T09:45:48;98863.63;;;34.96
76476;BMP280;65308;50.078;14.854;2023-05-16T09:48:15;98858.28;;;34.10
76476;BMP280;65308;50.078;14.854;2023-05-16T09:50:46;98864.94;;;34.18
76476;BMP280;65308;50.078;14.854;2023-05-16T09:53:15;98864.59;;;34.26
76476;BMP280;65308;50.078;14.854;2023-05-16T09:55:42;98861.19;;;34.27
76476;BMP280;65308;50.078;14.854;2023-05-16T09:58:10;98860.34;;;33.52
76476;BMP280;65308;50.078;14.854;2023-05-16T10:00:37;98862.53;;;33.40
76476;BMP280;65308;50.078;14.854;2023-05-16T10:03:05;98869.28;;;33.23
76476;BMP280;65308;50.078;14.854;2023-05-16T10:05:33;98874.69;;;32.55
76476;BMP280;65308;50.078;14.854;2023-05-16T10:08:02;98876.16;;;31.11
76476;BMP280;65308;50.078;14.854;2023-05-16T10:10:30;98870.19;;;30.37
76476;BMP280;65308;50.078;14.854;2023-05-16T10:12:58;98864.16;;;30.29
76476;BMP280;65308;50.078;14.854;2023-05-16T10:15:29;98858.19;;;30.11
76476;BMP280;65308;50.078;14.854;2023-05-16T10:17:56;98852.97;;;30.06
76476;BMP280;65308;50.078;14.854;2023-05-16T10:20:24;98861.25;;;30.06
76476;BMP280;65308;50.078;14.854;2023-05-16T10:22:55;98859.19;;;29.85
76476;BMP280;65308;50.078;14.854;2023-05-16T10:25:27;98863.19;;;29.72
76476;BMP280;65308;50.078;14.854;2023-05-16T10:27:55;98849.06;;;29.47
76476;BMP280;65308;50.078;14.854;2023-05-16T10:30:22;98835.47;;;28.98
76476;BMP280;65308;50.078;14.854;2023-05-16T10:32:52;98842.03;;;28.45
76476;BMP280;65308;50.078;14.854;2023-05-16T10:35:19;98840.44;;;28.42
76476;BMP280;65308;50.078;14.854;2023-05-16T10:37:46;98835.53;;;28.40
76476;BMP280;65308;50.078;14.854;2023-05-16T10:40:13;98835.66;;;28.33
76476;BMP280;65308;50.078;14.854;2023-05-16T10:42:43;98825.50;;;28.06
76476;BMP280;65308;50.078;14.854;2023-05-16T10:45:19;98825.28;;;27.85
76476;BMP280;65308;50.078;14.854;2023-05-16T10:47:55;98822.50;;;27.75
76476;BMP280;65308;50.078;14.854;2023-05-16T10:50:32;98819.97;;;26.62
76476;BMP280;65308;50.078;14.854;2023-05-16T10:53:16;98809.16;;;26.64
76476;BMP280;65308;50.078;14.854;2023-05-16T10:56:03;98805.88;;;26.65
76476;BMP280;65308;50.078;14.854;2023-05-16T10:58:42;98810.72;;;26.57
76476;BMP280;65308;50.078;14.854;2023-05-16T11:01:16;98809.91;;;26.47
76476;BMP280;65308;50.078;14.854;2023-05-16T11:04:09;98812.72;;;26.39
76476;BMP280;65308;50.078;14.854;2023-05-16T11:06:50;98812.22;;;26.33
76476;BMP280;65308;50.078;14.854;2023-05-16T11:09:22;98820.47;;;26.16
76476;BMP280;65308;50.078;14.854;2023-05-16T11:12:08;98814.47;;;26.10
76476;BMP280;65308;50.078;14.854;2023-05-16T11:14:38;98808.88;;;26.00
76476;BMP280;65308;50.078;14.854;2023-05-16T11:17:08;98819.41;;;25.86
76476;BMP280;65308;50.078;14.854;2023-05-16T11:19:39;98812.59;;;25.70
76476;BMP280;65308;50.078;14.854;2023-05-16T11:22:20;98814.41;;;25.43
76476;BMP280;65308;50.078;14.854;2023-05-16T11:24:50;98806.63;;;25.31
76476;BMP280;65308;50.078;14.854;2023-05-16T11:27:20;98818.09;;;24.97
76476;BMP280;65308;50.078;14.854;2023-05-16T11:29:47;98825.25;;;24.77
76476;BMP280;65308;50.078;14.854;2023-05-16T11:32:18;98825.13;;;24.45
76476;BMP280;65308;50.078;14.854;2023-05-16T11:34:46;98820.94;;;24.21
76476;BMP280;65308;50.078;14.854;2023-05-16T11:37:15;98826.41;;;23.90
76476;BMP280;65308;50.078;14.854;2023-05-16T11:39:43;98840.78;;;23.83
76476;BMP280;65308;50.078;14.854;2023-05-16T11:42:10;98838.22;;;23.62
76476;BMP280;65308;50.078;14.854;2023-05-16T11:44:37;98832.16;;;23.49
76476;BMP280;65308;50.078;14.854;2023-05-16T11:47:07;98833.38;;;23.40
76476;BMP280;65308;50.078;14.854;2023-05-16T11:49:33;98848.91;;;23.09
76476;BMP280;65308;50.078;14.854;2023-05-16T11:52:02;98860.94;;;23.06
76476;BMP280;65308;50.078;14.854;2023-05-16T11:54:29;98872.16;;;23.02
76476;BMP280;65308;50.078;14.854;2023-05-16T11:56:56;98874.41;;;23.11
76476;BMP280;65308;50.078;14.854;2023-05-16T11:59:24;98883.19;;;23.18
76476;BMP280;65308;50.078;14.854;2023-05-16T12:01:51;98876.44;;;23.19
76476;BMP280;65308;50.078;14.854;2023-05-16T12:04:18;98882.66;;;23.27
76476;BMP280;65308;50.078;14.854;2023-05-16T12:06:57;98885.78;;;23.31
76476;BMP280;65308;50.078;14.854;2023-05-16T12:09:26;98901.78;;;23.27
76476;BMP280;65308;50.078;14.854;2023-05-16T12:11:53;98912.31;;;23.23
76476;BMP280;65308;50.078;14.854;2023-05-16T12:14:20;98912.25;;;23.15
76476;BMP280;65308;50.078;14.854;2023-05-16T12:16:47;98909.88;;;23.04
76476;BMP280;65308;50.078;14.854;2023-05-16T12:19:15;98918.59;;;22.81
76476;BMP280;65308;50.078;14.854;2023-05-16T12:21:42;98925.47;;;22.75
76476;BMP280;65308;50.078;14.854;2023-05-16T12:24:09;98921.22;;;22.45
76476;BMP280;65308;50.078;14.854;2023-05-16T12:26:39;98920.41;;;22.37
76476;BMP280;65308;50.078;14.854;2023-05-16T12:29:06;98923.25;;;22.32
76476;BMP280;65308;50.078;14.854;2023-05-16T12:31:36;98916.25;;;22.02
76476;BMP280;65308;50.078;14.854;2023-05-16T12:34:03;98912.91;;;21.83
76476;BMP280;65308;50.078;14.854;2023-05-16T12:36:31;98906.16;;;21.63
76476;BMP280;65308;50.078;14.854;2023-05-16T12:38:59;98905.94;;;21.47
76476;BMP280;65308;50.078;14.854;2023-05-16T12:41:26;98897.47;;;21.25
76476;BMP280;65308;50.078;14.854;2023-05-16T12:44:10;98888.53;;;20.98
76476;BMP280;65308;50.078;14.854;2023-05-16T12:46:40;98883.41;;;20.67
76476;BMP280;65308;50.078;14.854;2023-05-16T12:49:07;98888.03;;;20.54
76476;BMP280;65308;50.078;14.854;2023-05-16T12:51:33;98885.13;;;20.33
76476;BMP280;65308;50.078;14.854;2023-05-16T12:54:07;98873.81;;;20.16
76476;BMP280;65308;50.078;14.854;2023-05-16T12:56:34;98880.41;;;19.82
76476;BMP280;65308;50.078;14.854;2023-05-16T12:59:00;98883.03;;;19.69
76476;BMP280;65308;50.078;14.854;2023-05-16T13:01:29;98879.00;;;19.51
76476;BMP280;65308;50.078;14.854;2023-05-16T13:03:55;98880.84;;;19.43
76476;BMP280;65308;50.078;14.854;2023-05-16T13:06:22;98878.16;;;19.13
76476;BMP280;65308;50.078;14.854;2023-05-16T13:08:48;98882.97;;;19.01
76476;BMP280;65308;50.078;14.854;2023-05-16T13:11:24;98877.09;;;18.97
76476;BMP280;65308;50.078;14.854;2023-05-16T13:13:53;98881.50;;;19.00
76476;BMP280;65308;50.078;14.854;2023-05-16T13:16:20;98875.03;;;18.73
76476;BMP280;65308;50.078;14.854;2023-05-16T13:18:48;98875.50;;;18.77
76476;BMP280;65308;50.078;14.854;2023-05-16T13:21:15;98895.56;;;18.63
76476;BMP280;65308;50.078;14.854;2023-05-16T13:23:41;98893.03;;;18.41
76476;BMP280;65308;50.078;14.854;2023-05-16T13:26:08;98882.25;;;18.29
76476;BMP280;65308;50.078;14.854;2023-05-16T13:28:35;98887.66;;;18.29
76476;BMP280;65308;50.078;14.854;2023-05-16T13:31:02;98898.22;;;18.33
76476;BMP280;65308;50.078;14.854;2023-05-16T13:33:28;98905.91;;;18.23
76476;BMP280;65308;50.078;14.854;2023-05-16T13:35:57;98903.19;;;18.29
76476;BMP280;65308;50.078;14.854;2023-05-16T13:38:24;98918.47;;;18.26
76476;BMP280;65308;50.078;14.854;2023-05-16T13:40:54;98908.63;;;18.23
76476;BMP280;65308;50.078;14.854;2023-05-16T13:43:20;98889.66;;;18.23
76476;BMP280;65308;50.078;14.854;2023-05-16T13:45:47;98895.06;;;18.23
76476;BMP280;65308;50.078;14.854;2023-05-16T13:48:14;98894.63;;;18.14
76476;BMP280;65308;50.078;14.854;2023-05-16T13:50:41;98900.88;;;18.03
76476;BMP280;65308;50.078;14.854;2023-05-16T13:53:09;98918.81;;;17.95
76476;BMP280;65308;50.078;14.854;2023-05-16T13:55:36;98904.59;;;17.83
76476;BMP280;65308;50.078;14.854;2023-05-16T13:58:03;98914.75;;;17.66
76476;BMP280;65308;50.078;14.854;2023-05-16T14:00:30;98906.88;;;17.68
76476;BMP280;65308;50.078;14.854;2023-05-16T14:02:56;98910.09;;;17.49